Equality — ODTX — position and weather

sailwx.info

Track history (hours):
 
Tides and Currents Weather Stations Pressure Air Temp Water Temp Dewpoint Dewpoint Depression Visibility Wind Speed Wind Dir Waves Ship Positions

Equality

Last reported at 2018-Feb-23 19:34 UTC. Time now 2018-Feb-24 00:39 UTC.
Position N 11°18' W 074°45'.

Length 124 m; draft 5.8 m.

Type: Cargo ship. MMSI: 450501000.

Date/timePositionNaut miles runAvg speedWind from/ knotsBaromVisibWave heightAir tempDewpointWater temp
2018-Feb-23 19:34N 11°18' W 074°45'1 6.2
2018-Feb-23 19:25N 11°17' W 074°46'3 6.2
2018-Feb-23 18:59N 11°16' W 074°49'3 6.2
2018-Feb-23 18:26N 11°14' W 074°52'3 5.9
2018-Feb-23 18:00N 11°13' W 074°54'3 5.7
2018-Feb-23 17:30N 11°11' W 074°56'3 5.3
2018-Feb-23 17:00N 11°10' W 074°59'3 5.4
2018-Feb-23 16:30N 11°08' W 075°01'3 5.6
2018-Feb-23 15:59N 11°07' W 075°03'  
Track history (hours):
 
Tides and Currents Weather Stations Pressure Air Temp Water Temp Dewpoint Dewpoint Depression Visibility Wind Speed Wind Dir Waves Ship Positions

Equality

Last reported at 2018-Feb-23 19:34 UTC. Time now 2018-Feb-24 00:39 UTC.
Position N 11°18' W 074°45'.

Length 124 m; draft 5.8 m.

Type: Cargo ship. MMSI: 450501000.

Date/timePositionNaut miles runAvg speedWind from/ knotsBaromVisibWave heightAir tempDewpointWater temp
2018-Feb-23 19:34N 11°18' W 074°45'1 6.2
2018-Feb-23 19:25N 11°17' W 074°46'3 6.2
2018-Feb-23 18:59N 11°16' W 074°49'3 6.2
2018-Feb-23 18:26N 11°14' W 074°52'3 5.9
2018-Feb-23 18:00N 11°13' W 074°54'3 5.7
2018-Feb-23 17:30N 11°11' W 074°56'3 5.3
2018-Feb-23 17:00N 11°10' W 074°59'3 5.4
2018-Feb-23 16:30N 11°08' W 075°01'3 5.6
2018-Feb-23 15:59N 11°07' W 075°03'  

Dump ship's entire track history